Metar GG30 METAR message from awiacja.imgw.pl Metar G30 EPLB METAR EPLB 181330Z 31011KT CAVOK 17/05 Q1026 =